Leivasy, WV (26676)

4:55 PM EST on February 14, 2016 (GMT -0500)
Wren Lane | | Change Station
CLOSE
Current Station
Personal Weather Station
Location: Rainelle, WV
Elevation: 2405 ft
Nearby Weather Stations
Active Advisory: Winter Weather Advisory Active Notice: Record Report

Elev 2405 ft 38.04 °N, 80.92 °W | Updated 12 minutes ago

Overcast
Overcast
18.7 °F
Feels Like 19 °F
N
0.0
Wind Variable Wind from East

Today
High -- | Low -- °F
--% Chance of Precip.
Yesterday
High -- | Low -- °F
Precip. -- in
Pressure 30.22 in
Visibility 10.0 miles
Clouds Scattered Clouds 4100 ft
Mostly Cloudy 4800 ft
Overcast 6000 ft
Windchill 19 °F
Dew Point 10 °F
Humidity 67%
Rainfall 0.00 in
Snow Depth Not available.
7:14 AM 5:59 PM
Waxing Crescent, 45% visible
METAR KLWB 142135Z AUTO 12007KT 10SM SCT041 BKN048 OVC060 M04/M18 A3022 RMK AO2 T10451178
Pressure 30.22 in
Visibility 10.0 miles
Clouds Scattered Clouds 4100 ft
Mostly Cloudy 4800 ft
Overcast 6000 ft
Windchill 19 °F
Dew Point 10 °F
Humidity 67%
Rainfall 0.00 in
Snow Depth Not available.
7:14 AM 5:59 PM
Waxing Crescent, 45% visible
METAR KLWB 142135Z AUTO 12007KT 10SM SCT041 BKN048 OVC060 M04/M18 A3022 RMK AO2 T10451178

10-Day Weather Forecast

Almanac

Astronomy

Feb. 14, 2016 Rise Set
Actual Time
Civil Twilight
Nautical Twilight
Astronomical Twilight
Moon
Length of Visible Light
Length of Day
Tomorrow will be .
, % of the Moon is Illuminated

Today's Extremes

State Highs State Lows

Community

WunderPhotos

Upload Photos

1,892,890 photos uploaded!

WunderBlog® & News

Nearby

Air Quality

  Air Quality AQ Index Pollutant
Not available.

Snow Depth

Station Depth Elevation

Earthquake Activity

City Distance Mag. Time & Date
Minimum magnitude displayed is 2.5.

Coastal Water Temperatures

Place Temperature

Stations

Nearby Weather Stations

Station Location Temp. Windchill Dew Point Humidity Wind Precip. Elev Updated Type
                   

Watches & Warnings

Winter Weather Advisory
Issued: 3:37 PM EST Feb. 14, 2016 – National Weather Service

... Winter Weather Advisory remains in effect until 7 am EST
Tuesday...

* hazard... snow. Areas freezing rain Monday.

* Snow accumulations... 3 to 5 inches.

* Ice accumulations... up to a tenth of an inch of ice
accretion... mainly over eastern portions of the advised
counties.

* Temperatures... steady or slowly rising.

* Impacts... untreated roads will be come snow covered... creating
hazardous travel conditions. Some limbs may fall due to ice
accretion.

Precautionary/preparedness actions...

A Winter Weather Advisory means that periods of snow... sleet...
and freezing rain will cause travel difficulties. Be prepared for
slippery roads and limited visibilities... and use caution while
driving.



Ktb